Time;durP1;ratioP1;P1;durP2;ratioP2;P2;SDS_P1;SDS_P2;PMS_P1;PMS_P2;Temp;Humidity;BMP_temperature;BMP_pressure;BME280_temperature;BME280_humidity;BME280_pressure;Samples;Min_cycle;Max_cycle;Signal;HPM_P1;HPM_P2
2023/07/28 00:01:27;;;;;;;7.43;4.20;;;;;;;16.67;100.00;99323.81;5052012;28;20234;-63
2023/07/28 00:03:52;;;;;;;4.83;2.00;;;;;;;16.63;100.00;99315.50;5052732;28;20288;-65
2023/07/28 00:06:17;;;;;;;4.60;2.80;;;;;;;16.64;100.00;99311.13;5052914;28;20268;-64
2023/07/28 00:08:42;;;;;;;2.97;2.17;;;;;;;16.62;100.00;99311.25;5053278;28;20662;-64
2023/07/28 00:11:14;;;;;;;2.77;2.53;;;;;;;16.58;100.00;99309.91;5051300;28;20226;-64
2023/07/28 00:13:41;;;;;;;5.40;3.90;;;;;;;16.57;100.00;99301.31;5055109;28;20181;-64
2023/07/28 00:16:07;;;;;;;3.00;2.47;;;;;;;16.51;100.00;99301.88;5052995;28;20229;-64
2023/07/28 00:18:32;;;;;;;7.00;4.30;;;;;;;16.45;100.00;99300.66;5052732;28;20208;-65
2023/07/28 00:20:58;;;;;;;4.00;3.60;;;;;;;16.45;100.00;99303.25;5047770;28;20652;-64
2023/07/28 00:23:23;;;;;;;5.17;3.73;;;;;;;16.42;100.00;99303.53;5046597;28;20280;-64
2023/07/28 00:25:49;;;;;;;3.97;3.40;;;;;;;16.37;100.00;99291.94;5051196;28;20226;-63
2023/07/28 00:28:14;;;;;;;4.00;2.50;;;;;;;16.46;100.00;99296.31;5052783;28;20585;-66
2023/07/28 00:30:39;;;;;;;9.17;7.20;;;;;;;16.56;100.00;99296.25;5042047;28;20306;-65
2023/07/28 00:33:05;;;;;;;4.63;2.70;;;;;;;16.53;100.00;99289.56;5057638;28;20657;-66
2023/07/28 00:35:30;;;;;;;3.83;3.43;;;;;;;16.52;100.00;99295.72;5052161;28;20523;-65
2023/07/28 00:37:55;;;;;;;3.03;2.70;;;;;;;16.49;100.00;99285.63;5052782;28;20276;-65
2023/07/28 00:40:22;;;;;;;6.00;3.07;;;;;;;16.44;100.00;99287.81;5043819;28;20289;-65
2023/07/28 00:42:47;;;;;;;3.17;2.87;;;;;;;16.51;100.00;99285.47;5065280;28;20180;-65
2023/07/28 00:45:13;;;;;;;5.37;2.80;;;;;;;16.44;100.00;99283.44;5051799;28;20202;-65
2023/07/28 00:47:38;;;;;;;3.30;2.70;;;;;;;16.34;100.00;99280.06;5051234;28;20248;-66
2023/07/28 00:50:04;;;;;;;3.60;2.80;;;;;;;16.35;100.00;99281.72;5042608;28;20185;-66
2023/07/28 00:52:30;;;;;;;3.47;2.97;;;;;;;16.42;100.00;99282.78;5062929;28;20179;-66
2023/07/28 00:54:55;;;;;;;2.33;2.13;;;;;;;16.39;100.00;99270.06;5042783;28;20181;-65
2023/07/28 00:57:20;;;;;;;4.30;3.20;;;;;;;16.34;100.00;99271.47;5052265;28;20177;-65
2023/07/28 00:59:46;;;;;;;6.57;5.90;;;;;;;16.30;100.00;99270.94;5045493;28;20189;-66
2023/07/28 01:02:12;;;;;;;5.93;3.60;;;;;;;16.30;100.00;99281.31;5041167;28;20229;-66
2023/07/28 01:04:38;;;;;;;3.77;2.80;;;;;;;16.18;100.00;99279.84;5050411;28;20296;-66
2023/07/28 01:07:10;;;;;;;3.13;2.83;;;;;;;16.18;100.00;99275.47;5052255;28;20248;-66
2023/07/28 01:10:00;;;;;;;3.27;2.50;;;;;;;16.18;100.00;99285.03;5052267;28;20709;-66
2023/07/28 01:12:25;;;;;;;7.03;4.50;;;;;;;16.21;100.00;99270.00;5042198;28;20226;-67
2023/07/28 01:14:51;;;;;;;5.63;3.30;;;;;;;16.34;100.00;99284.44;5046031;28;20298;-67
2023/07/28 01:17:16;;;;;;;5.20;3.33;;;;;;;16.26;100.00;99277.34;5052370;28;20185;-67
2023/07/28 01:19:41;;;;;;;5.07;3.03;;;;;;;16.28;100.00;99283.22;5051975;28;20238;-67
2023/07/28 01:22:47;;;;;;;3.87;3.33;;;;;;;16.09;100.00;99286.69;5057087;28;20225;-67
2023/07/28 01:25:36;;;;;;;3.67;3.33;;;;;;;16.03;100.00;99295.03;5051568;28;20314;-67
2023/07/28 01:28:03;;;;;;;4.90;4.47;;;;;;;16.07;100.00;99289.41;5050373;28;20181;-67
2023/07/28 01:30:29;;;;;;;4.53;4.13;;;;;;;16.14;100.00;99293.06;5044647;28;20259;-66
2023/07/28 01:32:55;;;;;;;5.20;3.60;;;;;;;16.19;100.00;99290.06;5050577;28;20304;-66
2023/07/28 01:35:21;;;;;;;7.43;5.00;;;;;;;16.16;100.00;99285.16;5049801;28;20185;-67
2023/07/28 01:37:50;;;;;;;6.80;4.20;;;;;;;16.18;100.00;99280.66;5061537;28;20589;-67
2023/07/28 01:40:19;;;;;;;4.30;3.77;;;;;;;16.33;100.00;99286.22;5042771;28;20527;-66
2023/07/28 01:42:44;;;;;;;4.03;3.33;;;;;;;16.31;100.00;99288.16;5055873;28;20205;-66
2023/07/28 01:45:10;;;;;;;4.23;3.83;;;;;;;16.25;100.00;99288.72;5046541;28;20628;-66
2023/07/28 01:47:35;;;;;;;4.60;3.83;;;;;;;16.24;100.00;99292.25;5051510;28;20192;-66
2023/07/28 01:50:01;;;;;;;3.70;3.40;;;;;;;16.28;100.00;99289.22;5051228;28;20197;-66
2023/07/28 01:52:27;;;;;;;4.00;3.60;;;;;;;16.30;100.00;99289.09;5036954;28;20256;-67
2023/07/28 01:54:53;;;;;;;3.80;3.40;;;;;;;16.26;100.00;99283.38;5041708;28;20186;-67
2023/07/28 01:57:18;;;;;;;5.17;3.23;;;;;;;16.38;100.00;99281.41;5051645;28;20200;-67
2023/07/28 01:59:43;;;;;;;4.93;3.37;;;;;;;16.38;100.00;99291.78;5051585;28;20187;-67
2023/07/28 02:02:09;;;;;;;4.03;3.20;;;;;;;16.36;100.00;99285.94;5055605;28;20228;-67
2023/07/28 02:04:34;;;;;;;5.07;3.43;;;;;;;16.39;100.00;99282.25;5050475;28;20648;-67
2023/07/28 02:07:00;;;;;;;3.70;3.10;;;;;;;16.38;100.00;99285.78;5050936;28;20208;-68
2023/07/28 02:09:25;;;;;;;5.50;2.83;;;;;;;16.40;100.00;99287.28;5050134;28;20177;-68
2023/07/28 02:11:50;;;;;;;6.17;3.50;;;;;;;16.34;100.00;99289.63;5042954;28;20216;-68
2023/07/28 02:14:16;;;;;;;7.97;3.03;;;;;;;16.29;100.00;99287.47;5043701;28;20196;-67
2023/07/28 02:16:41;;;;;;;3.43;3.13;;;;;;;16.29;100.00;99285.66;5051096;28;20639;-66
2023/07/28 02:19:07;;;;;;;5.70;2.90;;;;;;;16.31;100.00;99288.16;5051195;28;20264;-67
2023/07/28 02:21:33;;;;;;;3.73;3.40;;;;;;;16.34;100.00;99292.22;5052337;28;20220;-67
2023/07/28 02:23:58;;;;;;;9.30;3.70;;;;;;;16.39;100.00;99293.44;5049795;28;20681;-67
2023/07/28 02:26:23;;;;;;;3.43;3.13;;;;;;;16.44;100.00;99293.00;5050587;28;20633;-67
2023/07/28 02:28:48;;;;;;;5.30;3.57;;;;;;;16.41;100.00;99282.91;5049921;28;20182;-67
2023/07/28 02:31:14;;;;;;;5.17;3.33;;;;;;;16.40;100.00;99281.28;5047113;28;20226;-67
2023/07/28 02:33:39;;;;;;;3.43;3.10;;;;;;;16.46;100.00;99280.72;5046430;28;20186;-68
2023/07/28 02:36:05;;;;;;;3.40;3.10;;;;;;;16.41;100.00;99275.13;5050202;28;20571;-67
2023/07/28 02:38:30;;;;;;;3.30;3.00;;;;;;;16.40;100.00;99271.72;5051232;28;20181;-68
2023/07/28 02:40:55;;;;;;;6.63;3.87;;;;;;;16.42;100.00;99275.00;5047429;28;20362;-66
2023/07/28 02:43:20;;;;;;;4.33;3.20;;;;;;;16.45;100.00;99268.69;5059594;28;20189;-67
2023/07/28 02:45:56;;;;;;;3.40;3.10;;;;;;;16.40;100.00;99269.13;5048852;28;20308;-67
2023/07/28 02:48:22;;;;;;;4.20;3.30;;;;;;;16.41;100.00;99267.31;5050706;28;20195;-68
2023/07/28 02:50:50;;;;;;;3.23;2.90;;;;;;;16.37;100.00;99266.81;5046137;28;20721;-68
2023/07/28 02:53:15;;;;;;;3.30;2.90;;;;;;;16.37;100.00;99272.00;5059460;28;20232;-67
2023/07/28 02:55:45;;;;;;;3.87;3.10;;;;;;;16.31;100.00;99275.16;5050222;28;20645;-68
2023/07/28 02:58:11;;;;;;;4.37;3.27;;;;;;;16.35;100.00;99273.91;5050932;28;20232;-67
2023/07/28 03:00:40;;;;;;;4.53;3.67;;;;;;;16.25;100.00;99273.94;5034471;28;20220;-67
2023/07/28 03:03:12;;;;;;;4.43;2.93;;;;;;;16.29;100.00;99277.06;5060533;28;20180;-67
2023/07/28 03:05:39;;;;;;;3.40;2.73;;;;;;;16.34;100.00;99276.66;5054043;28;20655;-67
2023/07/28 03:08:05;;;;;;;4.73;3.00;;;;;;;16.21;100.00;99269.16;5054467;28;20295;-67
2023/07/28 03:10:30;;;;;;;3.20;2.90;;;;;;;16.22;100.00;99270.81;5045756;28;20733;-68
2023/07/28 03:12:55;;;;;;;3.33;3.03;;;;;;;16.24;100.00;99267.13;5058768;28;20263;-68
2023/07/28 03:15:24;;;;;;;3.60;3.30;;;;;;;16.25;100.00;99275.72;5044818;28;20251;-67
2023/07/28 03:17:50;;;;;;;3.47;3.17;;;;;;;16.25;100.00;99276.53;5066581;28;20177;-67
2023/07/28 03:20:16;;;;;;;5.07;3.10;;;;;;;16.26;100.00;99277.34;5044125;28;20519;-67
2023/07/28 03:22:42;;;;;;;5.27;3.00;;;;;;;16.26;100.00;99279.94;5052014;28;20189;-68
2023/07/28 03:25:07;;;;;;;5.77;3.10;;;;;;;16.27;100.00;99291.97;5053596;28;20201;-68
2023/07/28 03:27:33;;;;;;;6.33;2.90;;;;;;;16.19;100.00;99290.06;5054392;28;20579;-68
2023/07/28 03:29:58;;;;;;;3.93;3.10;;;;;;;16.24;100.00;99279.28;5053846;28;20185;-68
2023/07/28 03:32:23;;;;;;;6.37;3.40;;;;;;;16.21;100.00;99269.16;5038304;28;20221;-69
2023/07/28 03:34:48;;;;;;;4.03;3.43;;;;;;;16.24;100.00;99276.69;5053496;28;20188;-68
2023/07/28 03:37:13;;;;;;;4.63;3.57;;;;;;;16.28;100.00;99283.22;5054236;28;20177;-67
2023/07/28 03:39:39;;;;;;;3.90;2.97;;;;;;;16.29;100.00;99277.06;5054045;28;20632;-67
2023/07/28 03:42:04;;;;;;;5.00;3.00;;;;;;;16.29;100.00;99275.28;5058841;28;20221;-67
2023/07/28 03:44:30;;;;;;;3.77;3.40;;;;;;;16.28;100.00;99286.63;5052668;28;20220;-68
2023/07/28 03:46:55;;;;;;;6.00;2.80;;;;;;;16.32;100.00;99278.56;5053946;28;20240;-68
2023/07/28 03:49:20;;;;;;;3.10;2.80;;;;;;;16.33;100.00;99278.44;5053590;28;20544;-68
2023/07/28 03:51:46;;;;;;;2.63;2.43;;;;;;;16.30;100.00;99287.31;5056276;28;20220;-68
2023/07/28 03:54:11;;;;;;;2.93;2.40;;;;;;;16.34;100.00;99287.84;5054618;28;20593;-67
2023/07/28 03:56:36;;;;;;;2.53;2.33;;;;;;;16.38;100.00;99293.59;5053528;28;20264;-68
2023/07/28 03:59:01;;;;;;;2.63;2.43;;;;;;;16.42;100.00;99290.56;5053384;28;20203;-68
2023/07/28 04:01:27;;;;;;;2.50;2.27;;;;;;;16.46;100.00;99291.09;5053429;28;20247;-68
2023/07/28 04:03:52;;;;;;;3.23;2.23;;;;;;;16.43;100.00;99288.78;5051274;28;20201;-68
2023/07/28 04:06:17;;;;;;;4.27;2.40;;;;;;;16.51;100.00;99290.66;5051405;28;20177;-68
2023/07/28 04:08:43;;;;;;;2.80;2.60;;;;;;;16.54;100.00;99295.59;5053248;28;20657;-67
2023/07/28 04:11:08;;;;;;;2.70;2.50;;;;;;;16.62;100.00;99288.72;5051446;28;20240;-67
2023/07/28 04:13:36;;;;;;;3.37;2.57;;;;;;;16.68;100.00;99294.28;5033757;28;20649;-67
2023/07/28 04:16:02;;;;;;;2.50;2.00;;;;;;;16.72;100.00;99301.66;5052485;28;20217;-67
2023/07/28 04:18:27;;;;;;;2.53;2.13;;;;;;;16.75;100.00;99295.38;5051611;28;20184;-67
2023/07/28 04:20:53;;;;;;;2.80;2.47;;;;;;;16.83;100.00;99303.28;5044909;28;20238;-67
2023/07/28 04:23:18;;;;;;;3.97;2.47;;;;;;;16.84;100.00;99304.88;5060106;28;20201;-67
2023/07/28 04:25:43;;;;;;;5.03;2.10;;;;;;;16.89;100.00;99307.06;5052723;28;20695;-67
2023/07/28 04:28:09;;;;;;;3.27;2.33;;;;;;;16.92;100.00;99310.22;5053169;28;20177;-67
2023/07/28 04:30:34;;;;;;;3.47;2.10;;;;;;;16.87;100.00;99314.16;5046472;28;20228;-67
2023/07/28 04:33:00;;;;;;;2.60;2.40;;;;;;;16.92;100.00;99317.19;5062910;28;20200;-67
2023/07/28 04:35:25;;;;;;;3.43;2.00;;;;;;;16.79;100.00;99322.69;5052405;28;20181;-67
2023/07/28 04:37:50;;;;;;;2.70;1.93;;;;;;;16.75;100.00;99316.13;5052690;28;20173;-67
2023/07/28 04:40:16;;;;;;;2.20;2.00;;;;;;;16.79;100.00;99317.47;5044518;28;20244;-66
2023/07/28 04:42:41;;;;;;;2.30;2.00;;;;;;;16.73;100.00;99323.25;5064807;28;20765;-68
2023/07/28 04:45:07;;;;;;;2.20;2.00;;;;;;;16.86;100.00;99322.94;5051964;28;20217;-68
2023/07/28 04:47:32;;;;;;;2.37;2.03;;;;;;;16.84;100.00;99322.25;5052761;28;20185;-68
2023/07/28 04:49:58;;;;;;;2.97;2.57;;;;;;;16.86;100.00;99330.72;5052729;28;20519;-68
2023/07/28 04:52:23;;;;;;;2.03;1.90;;;;;;;16.93;100.00;99331.81;5054902;28;20660;-68
2023/07/28 04:54:48;;;;;;;2.47;1.83;;;;;;;16.88;100.00;99336.59;5052081;28;20177;-68
2023/07/28 04:57:14;;;;;;;5.83;2.17;;;;;;;16.93;100.00;99332.63;5050932;28;20213;-68
2023/07/28 04:59:39;;;;;;;3.43;2.30;;;;;;;17.00;100.00;99334.66;5052309;28;20663;-68
2023/07/28 05:02:04;;;;;;;3.43;1.80;;;;;;;17.02;100.00;99335.34;5043244;28;20225;-68
2023/07/28 05:04:30;;;;;;;1.97;1.80;;;;;;;17.04;100.00;99333.41;5051498;28;20652;-68
2023/07/28 05:06:55;;;;;;;3.43;1.70;;;;;;;17.07;100.00;99338.31;5050882;28;20181;-69
2023/07/28 05:09:20;;;;;;;3.07;1.40;;;;;;;17.08;100.00;99337.38;5052414;28;20239;-68
2023/07/28 05:11:46;;;;;;;1.63;1.50;;;;;;;17.05;100.00;99332.44;5055156;28;20376;-69
2023/07/28 05:14:11;;;;;;;1.60;1.50;;;;;;;17.06;100.00;99334.09;5045466;28;20173;-68
2023/07/28 05:16:36;;;;;;;2.03;1.40;;;;;;;17.22;100.00;99336.06;5051913;28;20200;-68
2023/07/28 05:19:01;;;;;;;1.70;1.37;;;;;;;17.17;100.00;99331.28;5052057;28;20181;-69
2023/07/28 05:21:27;;;;;;;3.37;1.40;;;;;;;17.22;100.00;99344.66;5052485;28;20255;-69
2023/07/28 05:23:52;;;;;;;1.47;1.30;;;;;;;17.29;100.00;99337.13;5056566;28;20193;-69
2023/07/28 05:26:17;;;;;;;1.70;1.60;;;;;;;17.37;100.00;99333.78;5050663;28;20177;-69
2023/07/28 05:28:42;;;;;;;2.00;1.20;;;;;;;17.44;100.00;99337.44;5051840;28;20246;-69
2023/07/28 05:31:08;;;;;;;1.67;1.50;;;;;;;17.49;100.00;99340.41;5047993;28;20224;-70
2023/07/28 05:33:33;;;;;;;1.90;1.63;;;;;;;17.62;100.00;99337.44;5047538;28;20215;-70
2023/07/28 05:36:05;;;;;;;1.07;1.00;;;;;;;17.81;100.00;99343.44;5051241;28;20184;-64
2023/07/28 05:38:30;;;;;;;4.07;1.90;;;;;;;17.93;100.00;99338.84;5044199;28;20272;-64
2023/07/28 05:40:57;;;;;;;1.73;1.20;;;;;;;17.94;100.00;99335.28;5047039;28;20307;-63
2023/07/28 05:43:22;;;;;;;2.77;1.13;;;;;;;18.12;100.00;99336.13;5046371;28;20193;-63
2023/07/28 05:45:47;;;;;;;3.13;1.10;;;;;;;18.13;100.00;99329.91;5051154;28;20218;-62
2023/07/28 05:48:13;;;;;;;2.07;0.90;;;;;;;18.46;100.00;99329.34;5051554;28;20173;-61
2023/07/28 05:50:38;;;;;;;5.37;1.50;;;;;;;18.67;100.00;99328.97;5043948;28;20228;-61
2023/07/28 05:53:04;;;;;;;1.80;1.00;;;;;;;18.81;100.00;99328.38;5049792;28;20197;-61
2023/07/28 05:55:29;;;;;;;2.77;1.50;;;;;;;19.13;100.00;99323.50;5046133;28;20533;-60
2023/07/28 05:57:55;;;;;;;3.03;1.60;;;;;;;19.57;100.00;99330.25;5051362;28;20185;-60
2023/07/28 06:00:20;;;;;;;0.97;0.97;;;;;;;19.73;100.00;99332.06;5043478;28;20189;-60
2023/07/28 06:02:45;;;;;;;2.30;1.00;;;;;;;19.41;100.00;99326.66;5050057;28;20192;-60
2023/07/28 06:05:11;;;;;;;1.83;0.90;;;;;;;19.42;100.00;99328.25;5050566;28;20201;-60
2023/07/28 06:07:36;;;;;;;2.53;1.07;;;;;;;19.45;100.00;99320.13;5051295;28;20189;-61
2023/07/28 06:10:02;;;;;;;3.63;0.80;;;;;;;19.86;100.00;99327.22;5050973;28;20585;-60
2023/07/28 06:12:27;;;;;;;5.80;1.10;;;;;;;19.86;100.00;99337.66;5054454;28;20312;-64
2023/07/28 06:14:52;;;;;;;1.10;1.00;;;;;;;19.94;100.00;99332.41;5045971;28;20672;-61
2023/07/28 06:17:17;;;;;;;3.93;1.00;;;;;;;19.63;100.00;99334.84;5051308;28;20184;-61
2023/07/28 06:19:42;;;;;;;3.73;1.00;;;;;;;19.45;100.00;99338.38;5050971;28;20236;-61
2023/07/28 06:22:08;;;;;;;0.80;0.80;;;;;;;19.52;100.00;99344.59;5059575;28;20220;-63
2023/07/28 06:24:33;;;;;;;1.77;0.80;;;;;;;20.12;100.00;99342.72;5053749;28;20205;-60
2023/07/28 06:26:59;;;;;;;1.60;0.73;;;;;;;20.34;100.00;99348.22;5051381;28;20184;-62
2023/07/28 06:29:24;;;;;;;1.13;0.63;;;;;;;20.66;100.00;99343.13;5049843;28;20188;-61
2023/07/28 06:31:49;;;;;;;0.80;0.80;;;;;;;20.56;100.00;99336.25;5053935;28;20245;-62
2023/07/28 06:34:15;;;;;;;1.07;0.97;;;;;;;20.92;100.00;99345.50;5052037;28;20181;-62
2023/07/28 06:36:40;;;;;;;1.87;1.30;;;;;;;20.89;100.00;99345.84;5043089;28;20261;-63
2023/07/28 06:39:05;;;;;;;2.80;0.97;;;;;;;21.38;100.00;99348.19;5048197;28;20181;-62
2023/07/28 06:41:30;;;;;;;3.47;0.80;;;;;;;21.65;100.00;99342.69;5050150;28;20217;-61
2023/07/28 06:43:56;;;;;;;1.50;0.60;;;;;;;22.43;100.00;99347.81;5058366;28;20213;-60
2023/07/28 06:46:22;;;;;;;2.07;0.70;;;;;;;22.97;100.00;99337.03;5054287;28;20953;-62
2023/07/28 06:48:47;;;;;;;4.10;0.87;;;;;;;24.05;100.00;99341.59;5048666;28;20205;-65
2023/07/28 06:51:12;;;;;;;2.63;0.67;;;;;;;23.67;100.00;99340.00;5045542;28;20241;-63
2023/07/28 06:53:37;;;;;;;4.03;1.00;;;;;;;24.05;100.00;99343.38;5045565;28;20187;-68
2023/07/28 06:56:03;;;;;;;2.10;0.60;;;;;;;25.24;100.00;99347.69;5053969;28;20199;-62
2023/07/28 06:58:28;;;;;;;2.83;0.60;;;;;;;25.64;100.00;99340.91;5054126;28;20545;-65
2023/07/28 07:00:55;;;;;;;0.52;0.32;;;;;;;25.55;100.00;99361.34;5024984;27;20254;-62
2023/07/28 07:03:21;;;;;;;0.85;0.47;;;;;;;24.24;100.00;99352.44;5055917;28;20313;-62
2023/07/28 07:05:46;;;;;;;0.45;0.43;;;;;;;23.79;100.00;99361.34;5054154;28;20185;-63
2023/07/28 07:08:11;;;;;;;4.25;0.60;;;;;;;23.43;100.00;99356.94;5047281;28;20196;-63
2023/07/28 07:10:37;;;;;;;4.05;0.80;;;;;;;23.29;100.00;99353.34;5044997;28;20232;-63
2023/07/28 07:13:02;;;;;;;1.38;0.40;;;;;;;23.12;100.00;99358.00;5063208;28;20190;-64
2023/07/28 07:15:27;;;;;;;0.93;0.60;;;;;;;23.29;100.00;99363.03;5046939;28;20274;-64
2023/07/28 07:17:54;;;;;;;1.50;0.52;;;;;;;23.09;100.00;99370.66;5054054;28;20186;-64
2023/07/28 07:20:19;;;;;;;0.55;0.55;;;;;;;23.07;100.00;99370.00;5051730;28;20256;-62
2023/07/28 07:22:44;;;;;;;2.67;0.57;;;;;;;23.42;100.00;99378.94;5047639;28;20178;-63
2023/07/28 07:25:10;;;;;;;3.58;0.55;;;;;;;23.09;100.00;99379.31;5053104;28;20258;-63
2023/07/28 07:27:35;;;;;;;0.70;0.40;;;;;;;22.62;100.00;99383.13;5052401;28;20272;-63
2023/07/28 07:30:00;;;;;;;0.50;0.50;;;;;;;23.05;100.00;99391.97;5054240;28;20181;-61
2023/07/28 07:32:25;;;;;;;0.50;0.50;;;;;;;23.00;100.00;99393.53;5004578;28;20350;-64
2023/07/28 07:34:53;;;;;;;0.50;0.50;;;;;;;23.22;100.00;99391.84;5052200;28;20272;-63
2023/07/28 07:37:18;;;;;;;1.98;0.60;;;;;;;23.21;100.00;99392.81;5040939;28;20657;-64
2023/07/28 07:39:43;;;;;;;1.23;0.50;;;;;;;23.05;100.00;99386.75;5053248;28;20205;-62
2023/07/28 07:42:10;;;;;;;0.60;0.55;;;;;;;22.80;100.00;99403.75;5040510;28;20229;-64
2023/07/28 07:44:36;;;;;;;1.60;0.53;;;;;;;22.77;100.00;99397.06;5035441;28;20233;-63
2023/07/28 07:47:12;;;;;;;0.40;0.40;;;;;;;23.00;100.00;99399.59;5041957;28;20189;-62
2023/07/28 07:49:37;;;;;;;0.43;0.43;;;;;;;23.48;100.00;99393.13;5019540;28;20281;-64
2023/07/28 07:52:02;;;;;;;0.73;0.60;;;;;;;23.44;100.00;99399.75;5040220;28;20295;-64
2023/07/28 07:54:28;;;;;;;2.33;0.57;;;;;;;23.58;100.00;99403.31;5052768;28;20224;-63
2023/07/28 07:56:53;;;;;;;0.93;0.60;;;;;;;23.87;100.00;99399.78;5053253;28;20178;-63
2023/07/28 07:59:18;;;;;;;0.55;0.30;;;;;;;24.20;100.00;99416.88;5053435;28;20186;-62
2023/07/28 08:01:44;;;;;;;0.55;0.50;;;;;;;24.88;100.00;99416.34;5056116;28;20225;-66
2023/07/28 08:04:10;;;;;;;1.05;0.57;;;;;;;24.91;100.00;99414.16;5051101;28;20672;-61
2023/07/28 08:06:36;;;;;;;1.15;0.75;;;;;;;24.98;100.00;99408.91;5051688;28;20188;-63
2023/07/28 08:09:01;;;;;;;0.90;0.35;;;;;;;25.18;100.00;99411.66;5052937;28;20181;-63
2023/07/28 08:11:28;;;;;;;0.35;0.30;;;;;;;25.29;100.00;99411.09;5043242;28;20307;-64
2023/07/28 08:13:53;;;;;;;1.95;0.50;;;;;;;25.38;100.00;99419.66;5043317;28;20188;-63
2023/07/28 08:16:18;;;;;;;3.45;0.60;;;;;;;25.44;100.00;99410.13;5052430;28;20229;-63
2023/07/28 08:18:44;;;;;;;1.58;0.38;;;;;;;25.10;100.00;99409.97;5053148;28;20185;-62
2023/07/28 08:21:09;;;;;;;0.65;0.65;;;;;;;24.81;100.00;99417.13;5051526;28;20606;-64
2023/07/28 08:23:35;;;;;;;0.30;0.30;;;;;;;24.24;100.00;99418.13;5057704;28;20608;-62
2023/07/28 08:26:00;;;;;;;3.42;0.40;;;;;;;24.63;100.00;99414.97;5052186;28;20227;-64
2023/07/28 08:28:25;;;;;;;1.15;0.47;;;;;;;24.86;100.00;99415.72;5051313;28;20553;-64
2023/07/28 08:30:56;;;;;;;0.65;0.65;;;;;;;24.97;100.00;99407.31;5046218;28;20282;-63
2023/07/28 08:33:22;;;;;;;0.98;0.57;;;;;;;25.72;100.00;99412.63;5050967;28;20189;-63
2023/07/28 08:35:47;;;;;;;0.43;0.38;;;;;;;27.50;100.00;99418.13;5052449;28;20196;-65
2023/07/28 08:38:12;;;;;;;0.50;0.30;;;;;;;27.50;100.00;99423.41;5052435;28;20185;-71
2023/07/28 08:40:38;;;;;;;0.77;0.30;;;;;;;26.68;100.00;99429.13;5045952;28;20303;-62
2023/07/28 08:43:03;;;;;;;0.98;0.57;;;;;;;25.37;100.00;99422.47;5054193;28;20170;-62
2023/07/28 08:45:28;;;;;;;0.30;0.30;;;;;;;24.88;100.00;99418.97;5051884;28;20194;-62
2023/07/28 08:47:54;;;;;;;1.00;0.52;;;;;;;24.55;100.00;99412.50;5042282;28;20178;-61
2023/07/28 08:50:20;;;;;;;1.95;0.57;;;;;;;24.33;100.00;99411.72;5036732;28;20181;-61
2023/07/28 08:52:45;;;;;;;0.77;0.63;;;;;;;24.59;100.00;99413.72;5050342;28;20190;-63
2023/07/28 08:55:11;;;;;;;2.35;0.75;;;;;;;24.62;100.00;99417.78;5044566;28;20227;-63
2023/07/28 08:57:36;;;;;;;5.28;0.70;;;;;;;24.92;100.00;99422.84;5052097;28;20181;-62
2023/07/28 09:00:10;;;;;;;1.08;0.60;;;;;;;26.32;100.00;99424.28;5051494;28;20185;-63
2023/07/28 09:02:35;;;;;;;0.30;0.30;;;;;;;28.12;100.00;99422.00;5056952;28;20225;-62
2023/07/28 09:05:02;;;;;;;0.50;0.50;;;;;;;29.17;94.40;99428.31;5051719;28;20278;-64
2023/07/28 09:07:34;;;;;;;2.85;0.50;;;;;;;28.74;91.42;99430.03;5052660;28;20217;-64
2023/07/28 09:10:00;;;;;;;0.65;0.60;;;;;;;29.03;93.03;99426.88;5051371;28;20268;-63
2023/07/28 09:12:25;;;;;;;1.65;0.57;;;;;;;28.62;99.56;99432.53;5056679;28;20319;-66
2023/07/28 09:14:56;;;;;;;1.00;0.40;;;;;;;27.75;100.00;99429.75;5046423;28;20685;-65
2023/07/28 09:17:21;;;;;;;0.50;0.50;;;;;;;28.00;100.00;99427.16;5052372;28;20675;-64
2023/07/28 09:19:54;;;;;;;0.85;0.50;;;;;;;27.11;100.00;99424.34;5052207;28;20216;-62
2023/07/28 09:22:22;;;;;;;1.80;0.70;;;;;;;26.83;100.00;99433.34;5058479;28;20279;-65
2023/07/28 09:24:48;;;;;;;0.68;0.63;;;;;;;25.87;100.00;99433.53;5040128;28;20245;-63
2023/07/28 09:27:25;;;;;;;0.40;0.40;;;;;;;25.49;100.00;99431.44;5051884;28;20544;-65
2023/07/28 09:29:54;;;;;;;0.80;0.80;;;;;;;25.72;100.00;99433.72;5051463;28;20200;-63
2023/07/28 09:32:32;;;;;;;1.10;0.75;;;;;;;25.53;100.00;99429.22;5054560;28;20233;-61
2023/07/28 09:35:18;;;;;;;1.40;0.80;;;;;;;25.29;100.00;99434.78;5051153;28;20181;-61
2023/07/28 09:37:47;;;;;;;1.38;0.60;;;;;;;25.29;100.00;99426.03;5047191;28;20202;-62
2023/07/28 09:40:14;;;;;;;0.52;0.52;;;;;;;25.43;100.00;99435.66;5042663;28;20965;-62
2023/07/28 09:42:41;;;;;;;0.90;0.50;;;;;;;25.19;100.00;99433.50;5055645;28;20236;-64
2023/07/28 09:45:08;;;;;;;0.52;0.50;;;;;;;26.44;100.00;99430.56;5039091;28;20241;-63
2023/07/28 09:47:35;;;;;;;1.85;0.70;;;;;;;28.10;99.83;99429.34;5044758;28;20220;-65
2023/07/28 09:50:03;;;;;;;1.48;0.57;;;;;;;28.18;97.14;99426.41;5031601;28;20193;-65
2023/07/28 09:52:34;;;;;;;1.75;0.40;;;;;;;28.05;99.38;99415.97;5035013;28;20216;-64
2023/07/28 09:55:03;;;;;;;0.80;0.70;;;;;;;27.96;98.35;99428.59;5042107;28;20192;-65
2023/07/28 09:57:29;;;;;;;0.47;0.47;;;;;;;28.32;96.14;99422.66;5050930;28;20261;-64
2023/07/28 09:59:57;;;;;;;1.45;0.73;;;;;;;28.28;94.51;99428.56;5052496;28;20192;-65
2023/07/28 10:02:22;;;;;;;0.50;0.45;;;;;;;28.29;96.86;99425.75;5041443;28;20606;-66
2023/07/28 10:04:48;;;;;;;0.88;0.55;;;;;;;27.60;100.00;99430.03;5051618;28;20209;-64
2023/07/28 10:07:13;;;;;;;2.95;0.60;;;;;;;27.10;100.00;99441.22;5051318;28;20181;-66
2023/07/28 10:09:39;;;;;;;2.20;0.50;;;;;;;27.09;100.00;99445.69;5051805;28;20265;-66
2023/07/28 10:12:05;;;;;;;1.90;0.60;;;;;;;28.46;100.00;99441.03;5056204;28;20228;-66
2023/07/28 10:14:39;;;;;;;0.90;0.57;;;;;;;28.15;98.62;99438.25;5040941;28;20225;-66
2023/07/28 10:17:05;;;;;;;1.27;0.80;;;;;;;28.16;99.66;99436.41;5051260;28;20650;-66
2023/07/28 10:19:35;;;;;;;1.85;0.60;;;;;;;27.69;100.00;99439.34;5051651;28;20197;-65
2023/07/28 10:22:02;;;;;;;1.27;0.77;;;;;;;27.84;100.00;99437.22;5056801;28;20224;-67
2023/07/28 10:24:49;;;;;;;0.93;0.68;;;;;;;27.27;100.00;99445.00;5063144;28;20743;-63
2023/07/28 10:27:38;;;;;;;1.60;0.88;;;;;;;27.22;100.00;99448.25;5046122;28;20236;-63
2023/07/28 10:30:14;;;;;;;0.75;0.75;;;;;;;27.44;100.00;99442.72;5031140;28;20192;-61
2023/07/28 10:32:43;;;;;;;1.20;0.80;;;;;;;27.58;100.00;99442.66;5063020;28;20185;-60
2023/07/28 10:35:14;;;;;;;1.90;0.70;;;;;;;27.60;100.00;99452.00;5042015;28;20196;-63
2023/07/28 10:37:48;;;;;;;0.80;0.80;;;;;;;27.21;100.00;99457.22;5034120;28;20186;-63
2023/07/28 10:40:32;;;;;;;1.50;0.80;;;;;;;26.24;100.00;99457.72;5033511;28;20730;-62
2023/07/28 10:43:01;;;;;;;0.90;0.90;;;;;;;26.13;100.00;99449.63;5059735;28;20744;-64
2023/07/28 10:45:29;;;;;;;2.63;0.98;;;;;;;25.94;100.00;99449.38;5050001;28;20217;-63
2023/07/28 10:47:56;;;;;;;1.05;0.90;;;;;;;25.67;100.00;99451.13;5050702;28;20185;-63
2023/07/28 10:50:26;;;;;;;0.43;0.43;;;;;;;26.07;100.00;99457.31;5042975;28;20279;-63
2023/07/28 10:52:51;;;;;;;1.27;0.70;;;;;;;26.03;100.00;99453.41;5051883;28;20170;-63
2023/07/28 10:55:20;;;;;;;1.90;0.80;;;;;;;25.64;100.00;99454.97;5043631;28;20277;-63
2023/07/28 10:57:46;;;;;;;3.92;0.75;;;;;;;26.11;100.00;99455.09;5044796;28;20178;-62
2023/07/28 11:00:14;;;;;;;1.20;0.70;;;;;;;26.26;100.00;99453.06;5013440;28;20205;-65
2023/07/28 11:02:44;;;;;;;0.80;0.80;;;;;;;26.65;100.00;99447.97;5059472;28;20679;-66
2023/07/28 11:05:24;;;;;;;2.17;1.25;;;;;;;26.81;100.00;99452.03;5045031;28;20698;-65
2023/07/28 11:07:53;;;;;;;0.80;0.80;;;;;;;27.05;100.00;99461.13;5041418;28;20284;-68
2023/07/28 11:10:18;;;;;;;2.47;0.80;;;;;;;27.02;100.00;99460.72;5041972;28;20632;-67
2023/07/28 11:12:46;;;;;;;1.00;0.82;;;;;;;26.16;100.00;99452.66;5058048;28;20186;-67
2023/07/28 11:15:13;;;;;;;1.35;1.05;;;;;;;26.02;100.00;99451.78;5031230;28;20217;-68
2023/07/28 11:17:41;;;;;;;1.25;0.98;;;;;;;25.98;100.00;99449.78;5042216;28;20200;-66
2023/07/28 11:20:16;;;;;;;1.27;0.90;;;;;;;25.63;100.00;99453.34;5030620;28;20204;-66
2023/07/28 11:22:43;;;;;;;1.52;1.20;;;;;;;25.80;100.00;99447.72;5051498;28;20280;-68
2023/07/28 11:25:12;;;;;;;3.35;1.25;;;;;;;25.66;100.00;99457.41;5052374;28;20216;-68